Time;durP1;ratioP1;P1;durP2;ratioP2;P2;SDS_P1;SDS_P2;PMS_P1;PMS_P2;Temp;Humidity;BMP_temperature;BMP_pressure;BME280_temperature;BME280_humidity;BME280_pressure;Samples;Min_cycle;Max_cycle;Signal;HPM_P1;HPM_P2
2022/11/25 00:01:25;;;;;;;0.50;0.40;;;;;;;6.68;81.76;94918.91;5112569;28;20959;-52
2022/11/25 00:03:56;;;;;;;0.40;0.30;;;;;;;7.20;84.40;94918.94;5112293;28;20511;-52
2022/11/25 00:06:26;;;;;;;0.40;0.40;;;;;;;7.65;82.23;94913.00;5112473;28;20424;-52
2022/11/25 00:08:55;;;;;;;0.40;0.30;;;;;;;7.84;79.18;94918.59;5112470;28;20532;-52
2022/11/25 00:11:24;;;;;;;0.50;0.33;;;;;;;8.12;82.29;94921.53;5112928;28;20412;-52
2022/11/25 00:13:53;;;;;;;0.40;0.30;;;;;;;7.61;80.71;94867.91;5112647;28;20427;-52
2022/11/25 00:16:25;;;;;;;0.30;0.20;;;;;;;8.08;78.42;94919.69;5112811;27;20420;-52
2022/11/25 00:18:55;;;;;;;0.30;0.20;;;;;;;7.64;74.81;94912.22;5112598;28;20435;-52
2022/11/25 00:21:25;;;;;;;0.40;0.40;;;;;;;7.33;78.71;94926.38;5112892;28;20982;-52
2022/11/25 00:23:54;;;;;;;0.40;0.30;;;;;;;7.38;76.66;94929.03;5112285;28;20510;-52
2022/11/25 00:26:24;;;;;;;0.40;0.30;;;;;;;7.28;79.38;94930.81;5112689;28;20416;-52
2022/11/25 00:28:53;;;;;;;0.30;0.20;;;;;;;7.36;77.63;94936.38;5112367;28;20485;-52
2022/11/25 00:31:25;;;;;;;0.40;0.30;;;;;;;6.84;76.71;94935.59;5112420;28;20790;-52
2022/11/25 00:33:54;;;;;;;0.43;0.40;;;;;;;7.25;78.17;94947.16;5116675;28;20447;-52
2022/11/25 00:36:24;;;;;;;0.40;0.33;;;;;;;7.49;75.27;94933.25;5116589;28;20503;-52
2022/11/25 00:38:54;;;;;;;0.30;0.30;;;;;;;7.24;74.42;94935.81;5116498;28;20510;-52
2022/11/25 00:46:56;;;;;;;0.30;0.20;;;;;;;7.89;74.57;94943.16;5116389;28;20502;-52
2022/11/25 00:49:24;;;;;;;0.30;0.30;;;;;;;7.85;72.89;94941.28;5115977;28;20435;-52
2022/11/25 00:51:53;;;;;;;0.33;0.33;;;;;;;7.97;76.49;94950.53;5116030;28;20430;-52
2022/11/25 00:54:21;;;;;;;0.30;0.30;;;;;;;7.91;74.32;94948.97;5116210;28;20428;-52
2022/11/25 00:56:50;;;;;;;0.30;0.20;;;;;;;7.88;75.95;94948.66;5115827;27;20515;-52
2022/11/25 00:59:18;;;;;;;0.30;0.20;;;;;;;7.91;77.25;94956.06;5115873;28;20452;-52
2022/11/25 01:01:47;;;;;;;0.50;0.50;;;;;;;7.73;76.87;94952.06;5115959;28;20467;-52
2022/11/25 01:04:17;;;;;;;0.30;0.20;;;;;;;7.80;75.97;94951.81;5115978;28;20439;-53
2022/11/25 01:06:45;;;;;;;0.40;0.30;;;;;;;7.45;75.72;94955.94;5116034;28;20460;-52
2022/11/25 01:09:14;;;;;;;0.40;0.30;;;;;;;7.82;76.91;94953.13;5116223;28;20862;-52
2022/11/25 01:11:42;;;;;;;0.30;0.30;;;;;;;7.30;74.02;94955.88;5115314;28;20432;-52
2022/11/25 01:14:11;;;;;;;0.40;0.30;;;;;;;6.96;76.10;94921.19;5115624;28;20911;-52
2022/11/25 01:16:39;;;;;;;0.40;0.30;;;;;;;6.95;77.36;94950.44;5115495;28;20825;-52
2022/11/25 01:19:07;;;;;;;0.87;0.30;;;;;;;6.23;75.94;94947.53;5114899;28;20481;-52
2022/11/25 01:21:37;;;;;;;0.30;0.20;;;;;;;6.26;78.90;94947.06;5114870;28;20455;-52
2022/11/25 01:24:07;;;;;;;0.40;0.30;;;;;;;6.08;79.46;94942.16;5115702;28;20423;-52
2022/11/25 01:26:36;;;;;;;6.63;0.30;;;;;;;5.86;79.88;94939.59;5115361;28;20451;-52
2022/11/25 01:29:06;;;;;;;0.40;0.30;;;;;;;5.69;80.09;94941.50;5115079;28;21238;-52
2022/11/25 01:31:36;;;;;;;0.30;0.23;;;;;;;5.62;80.71;94939.06;5115467;28;20431;-52
2022/11/25 01:34:06;;;;;;;0.50;0.50;;;;;;;5.76;82.40;94950.00;5115454;28;20961;-52
2022/11/25 01:36:37;;;;;;;0.30;0.20;;;;;;;5.67;82.55;94947.00;5115401;28;20507;-52
2022/11/25 01:39:05;;;;;;;1.90;0.93;;;;;;;5.77;83.75;94946.31;5115444;28;20443;-52
2022/11/25 01:41:35;;;;;;;0.40;0.40;;;;;;;6.18;84.94;94939.59;5115334;28;20527;-52
2022/11/25 01:44:10;;;;;;;0.30;0.20;;;;;;;6.25;81.59;94935.72;5114348;28;21032;-52
2022/11/25 01:46:58;;;;;;;0.47;0.27;;;;;;;6.48;79.02;94941.72;5115012;28;20514;-52
2022/11/25 01:49:32;;;;;;;1.13;0.70;;;;;;;6.11;79.32;94945.09;5115164;27;20431;-52
2022/11/25 01:52:08;;;;;;;0.40;0.30;;;;;;;6.29;79.65;94951.81;5115219;27;20889;-52
2022/11/25 01:54:44;;;;;;;0.30;0.20;;;;;;;6.07;81.58;94949.25;5115014;28;20508;-52
2022/11/25 01:57:16;;;;;;;0.30;0.20;;;;;;;6.55;80.54;94952.81;5115182;28;20783;-52
2022/11/25 01:59:48;;;;;;;1.33;1.23;;;;;;;6.12;79.61;94965.06;5114681;28;20428;-52
2022/11/25 02:02:17;;;;;;;1.17;0.73;;;;;;;6.82;81.69;94959.59;5114615;28;20563;-52
2022/11/25 02:04:47;;;;;;;5.00;1.10;;;;;;;6.14;81.10;94901.69;5114542;28;20485;-52
2022/11/25 02:07:30;;;;;;;0.53;0.53;;;;;;;6.59;84.48;94964.41;5114636;27;20923;-52
2022/11/25 02:10:02;;;;;;;0.40;0.30;;;;;;;6.67;79.96;94963.94;5114362;28;20492;-51
2022/11/25 02:12:31;;;;;;;0.37;0.30;;;;;;;7.31;85.80;94968.00;5114996;27;20420;-51
2022/11/25 02:15:00;;;;;;;0.30;0.20;;;;;;;7.33;79.12;94968.56;5114864;28;20439;-52
2022/11/25 02:17:28;;;;;;;0.30;0.20;;;;;;;7.41;76.71;94957.50;5114669;28;20416;-51
2022/11/25 02:20:02;;;;;;;0.30;0.20;;;;;;;6.73;74.50;94955.03;5114640;28;20455;-52
2022/11/25 02:22:46;;;;;;;0.80;0.40;;;;;;;6.73;78.31;94971.63;5114443;28;20474;-51
2022/11/25 02:25:17;;;;;;;0.40;0.40;;;;;;;6.66;77.50;94965.78;5114564;28;20434;-51
2022/11/25 02:27:50;;;;;;;0.30;0.30;;;;;;;5.53;78.02;94855.66;5114258;28;20567;-51
2022/11/25 02:30:19;;;;;;;0.40;0.30;;;;;;;6.19;78.91;94960.44;5114206;28;20463;-51
2022/11/25 02:32:48;;;;;;;0.40;0.30;;;;;;;6.04;78.44;94960.28;5114432;28;20427;-52
2022/11/25 02:35:29;;;;;;;1.23;0.40;;;;;;;5.96;79.66;94965.19;5113162;28;20467;-52
2022/11/25 02:38:03;;;;;;;0.40;0.30;;;;;;;5.69;80.41;94965.16;5114052;27;20903;-51
2022/11/25 02:40:37;;;;;;;0.50;0.50;;;;;;;6.10;83.18;94971.63;5113969;28;20427;-51
2022/11/25 02:43:05;;;;;;;0.67;0.50;;;;;;;6.06;80.63;94962.66;5113819;28;21021;-51
2022/11/25 02:45:50;;;;;;;0.47;0.30;;;;;;;6.63;79.12;94966.28;5114086;28;20424;-51
2022/11/25 02:48:19;;;;;;;0.40;0.27;;;;;;;6.81;79.25;94962.44;5114083;28;20419;-51
2022/11/25 02:51:01;;;;;;;1.40;1.40;;;;;;;6.81;76.07;94959.81;5113658;28;20519;-52
2022/11/25 02:53:30;;;;;;;0.30;0.30;;;;;;;6.62;79.40;94948.91;5113764;28;20452;-52
2022/11/25 02:56:00;;;;;;;0.30;0.30;;;;;;;6.69;79.96;94977.66;5112065;28;20423;-51
2022/11/25 02:58:28;;;;;;;0.40;0.40;;;;;;;6.14;77.34;94975.38;5113835;28;20423;-52
2022/11/25 03:00:57;;;;;;;0.30;0.20;;;;;;;5.68;79.59;94966.19;5112570;28;20892;-52
2022/11/25 03:03:25;;;;;;;0.30;0.30;;;;;;;5.27;81.15;94880.88;5113425;28;20520;-51
2022/11/25 03:05:54;;;;;;;0.50;0.50;;;;;;;5.78;80.27;94974.19;5113793;28;20438;-51
2022/11/25 03:08:22;;;;;;;0.30;0.30;;;;;;;6.23;83.67;94974.66;5112979;28;20527;-52
2022/11/25 03:10:50;;;;;;;0.40;0.30;;;;;;;5.61;80.35;94981.38;5113935;28;20423;-51
2022/11/25 03:13:20;;;;;;;0.30;0.20;;;;;;;6.00;86.98;94974.16;5113599;28;20435;-51
2022/11/25 03:15:49;;;;;;;0.30;0.20;;;;;;;6.02;84.13;94982.63;5113586;28;20494;-51
2022/11/25 03:18:17;;;;;;;0.87;0.87;;;;;;;5.53;82.36;94982.59;5113705;28;20499;-51
2022/11/25 03:20:45;;;;;;;0.70;0.40;;;;;;;5.50;82.91;94983.09;5113525;28;20758;-51
2022/11/25 03:23:14;;;;;;;0.60;0.40;;;;;;;5.39;82.88;94991.13;5113350;28;20479;-51
2022/11/25 03:25:42;;;;;;;0.40;0.40;;;;;;;5.31;83.86;94994.16;5113277;28;20459;-51
2022/11/25 03:28:10;;;;;;;1.17;0.30;;;;;;;5.53;86.77;94994.94;5113173;28;20470;-51
2022/11/25 03:30:40;;;;;;;0.30;0.23;;;;;;;5.27;84.78;94943.13;5113880;28;20961;-51
2022/11/25 03:33:08;;;;;;;0.40;0.30;;;;;;;5.40;84.62;94997.94;5113458;28;20438;-51
2022/11/25 03:35:36;;;;;;;1.03;0.40;;;;;;;5.13;85.33;94995.25;5113242;28;20424;-51
2022/11/25 03:38:05;;;;;;;0.30;0.30;;;;;;;5.75;87.03;94998.34;5112825;28;20443;-52
2022/11/25 03:40:33;;;;;;;0.90;0.70;;;;;;;5.65;84.13;95006.13;5113063;28;20424;-51
2022/11/25 03:43:02;;;;;;;0.40;0.27;;;;;;;5.79;82.28;95010.75;5112931;28;20442;-52
2022/11/25 03:45:30;;;;;;;0.53;0.50;;;;;;;5.30;82.67;95021.47;5112885;28;20432;-52
2022/11/25 03:48:00;;;;;;;0.80;0.80;;;;;;;5.55;83.67;95019.16;5113175;28;20500;-52
2022/11/25 03:50:29;;;;;;;0.67;0.67;;;;;;;5.42;84.07;95017.69;5112549;28;20428;-51
2022/11/25 03:52:57;;;;;;;3.70;1.57;;;;;;;5.59;84.17;95020.25;5113217;28;20412;-51
2022/11/25 03:55:25;;;;;;;0.40;0.40;;;;;;;5.90;86.95;95029.31;5113267;28;20427;-51
2022/11/25 03:57:54;;;;;;;0.40;0.30;;;;;;;5.67;82.67;95025.88;5112698;28;20494;-52
2022/11/25 04:00:22;;;;;;;1.23;1.17;;;;;;;5.42;81.48;95030.81;5112892;28;20424;-50
2022/11/25 04:02:50;;;;;;;0.50;0.50;;;;;;;5.49;86.40;95025.41;5113022;28;20454;-51
2022/11/25 04:05:20;;;;;;;0.40;0.30;;;;;;;5.52;85.17;95017.00;5112606;28;20416;-51
2022/11/25 04:07:49;;;;;;;0.40;0.30;;;;;;;5.36;84.59;95023.13;5112283;28;20463;-51
2022/11/25 04:10:24;;;;;;;1.63;1.57;;;;;;;5.36;82.89;95026.56;5112939;28;20436;-51
2022/11/25 04:12:52;;;;;;;2.10;0.87;;;;;;;5.11;83.83;95028.81;5112891;28;20442;-51
2022/11/25 04:15:20;;;;;;;1.90;0.73;;;;;;;5.25;84.76;95026.66;5112373;28;20428;-51
2022/11/25 04:17:49;;;;;;;0.47;0.30;;;;;;;5.07;85.60;95035.59;5112620;28;20420;-52
2022/11/25 04:20:17;;;;;;;0.43;0.40;;;;;;;5.50;83.63;95032.22;5112843;28;20427;-52
2022/11/25 04:22:47;;;;;;;0.73;0.73;;;;;;;5.41;82.52;95031.06;5112874;28;20430;-52
2022/11/25 04:25:15;;;;;;;0.40;0.30;;;;;;;5.55;81.75;95037.56;5112444;28;20482;-52
2022/11/25 04:27:43;;;;;;;0.40;0.30;;;;;;;5.45;80.73;95042.69;5112219;28;20466;-52
2022/11/25 04:30:15;;;;;;;0.73;0.70;;;;;;;5.45;81.13;95038.22;5112373;28;21018;-52
2022/11/25 04:32:43;;;;;;;1.10;1.10;;;;;;;5.51;81.28;95046.97;5112128;28;20987;-52
2022/11/25 04:35:12;;;;;;;0.40;0.40;;;;;;;5.41;80.89;95055.53;5112347;28;20507;-52
2022/11/25 04:37:40;;;;;;;0.70;0.70;;;;;;;5.27;81.49;95053.47;5112058;28;20867;-51
2022/11/25 04:40:11;;;;;;;0.87;0.87;;;;;;;5.33;81.36;95057.78;5112552;28;20507;-51
2022/11/25 04:42:39;;;;;;;1.93;0.93;;;;;;;5.44;79.94;95056.88;5112645;28;20427;-51
2022/11/25 04:45:09;;;;;;;0.70;0.70;;;;;;;5.81;79.06;95065.75;5112107;28;20474;-51
2022/11/25 04:47:53;;;;;;;0.80;0.80;;;;;;;5.81;78.87;95068.38;5111836;28;20428;-51
2022/11/25 04:50:23;;;;;;;0.73;0.73;;;;;;;5.57;78.60;95073.06;5111572;28;20451;-51
2022/11/25 04:52:52;;;;;;;0.70;0.70;;;;;;;5.84;77.89;95070.53;5111844;28;20482;-50
2022/11/25 04:55:21;;;;;;;0.40;0.33;;;;;;;6.17;76.38;95074.88;5111969;28;20412;-51
2022/11/25 04:57:50;;;;;;;1.17;0.40;;;;;;;6.36;75.71;95082.16;5111136;28;20471;-51
2022/11/25 05:00:18;;;;;;;0.50;0.50;;;;;;;6.46;75.17;95078.81;5111642;28;20979;-51
2022/11/25 05:02:47;;;;;;;0.63;0.63;;;;;;;6.03;78.06;95087.59;5111826;28;20412;-51
2022/11/25 05:05:15;;;;;;;0.40;0.30;;;;;;;6.12;78.00;95087.97;5111925;28;20963;-51
2022/11/25 05:07:43;;;;;;;0.57;0.33;;;;;;;6.26;77.76;95095.22;5111777;28;20443;-52
2022/11/25 05:10:12;;;;;;;0.60;0.40;;;;;;;6.16;78.85;95092.47;5112132;28;20427;-52
2022/11/25 05:12:44;;;;;;;0.70;0.70;;;;;;;5.74;78.34;95091.44;5111678;28;20463;-52
2022/11/25 05:15:12;;;;;;;2.97;2.80;;;;;;;5.39;78.91;95097.00;5111293;28;20522;-52
2022/11/25 05:17:40;;;;;;;2.07;1.97;;;;;;;5.06;79.53;95082.06;5111967;28;20830;-52
2022/11/25 05:20:11;;;;;;;2.30;0.97;;;;;;;5.12;80.15;95098.72;5114433;28;20434;-52
2022/11/25 05:22:39;;;;;;;0.60;0.57;;;;;;;5.19;80.13;95099.34;5115544;27;20427;-52
2022/11/25 05:25:09;;;;;;;1.53;1.43;;;;;;;5.55;79.11;95106.69;5115208;28;20562;-52
2022/11/25 05:27:37;;;;;;;0.63;0.60;;;;;;;5.59;78.58;95112.28;5115040;28;20479;-52
2022/11/25 05:30:09;;;;;;;0.87;0.87;;;;;;;5.82;77.02;95117.28;5114277;27;20817;-52
2022/11/25 05:32:39;;;;;;;1.30;1.20;;;;;;;5.79;77.28;95112.53;5114431;28;20416;-52
2022/11/25 05:35:08;;;;;;;1.57;0.80;;;;;;;5.75;77.29;95098.25;5115488;28;20435;-52
2022/11/25 05:37:36;;;;;;;0.70;0.70;;;;;;;6.20;75.95;95135.66;5115163;28;20415;-52
2022/11/25 05:40:06;;;;;;;0.90;0.90;;;;;;;5.01;79.93;95155.53;5115134;28;20447;-52
2022/11/25 05:42:34;;;;;;;3.07;2.00;;;;;;;4.53;85.23;95157.09;5114478;28;20458;-51
2022/11/25 05:45:02;;;;;;;1.30;1.20;;;;;;;4.76;85.81;95163.00;5115160;27;20836;-52
2022/11/25 05:47:32;;;;;;;0.93;0.70;;;;;;;5.15;86.03;95169.16;5115228;27;20452;-52
2022/11/25 05:50:00;;;;;;;0.70;0.50;;;;;;;5.57;83.41;95165.06;5114607;28;20527;-52
2022/11/25 05:52:29;;;;;;;0.40;0.30;;;;;;;5.79;80.96;95167.75;5114637;28;20436;-52
2022/11/25 05:54:57;;;;;;;4.67;0.60;;;;;;;6.10;79.57;95161.84;5115013;28;20424;-51
2022/11/25 05:57:25;;;;;;;0.40;0.40;;;;;;;6.03;80.42;95161.25;5113569;28;20518;-51
2022/11/25 05:59:53;;;;;;;1.53;1.43;;;;;;;6.16;80.28;95170.63;5115053;28;20436;-51
2022/11/25 06:02:22;;;;;;;3.50;0.73;;;;;;;6.35;79.53;95172.69;5114804;28;20787;-51
2022/11/25 06:04:51;;;;;;;10.13;3.07;;;;;;;5.52;81.24;95178.16;5114466;28;20502;-52
2022/11/25 06:07:20;;;;;;;2.30;1.43;;;;;;;4.96;84.59;95189.59;5114408;28;20427;-52
2022/11/25 06:09:48;;;;;;;1.50;0.87;;;;;;;5.25;86.07;95195.59;5114159;28;20493;-53
2022/11/25 06:12:16;;;;;;;1.40;1.30;;;;;;;5.65;83.48;95193.59;5114877;28;20444;-52
2022/11/25 06:14:45;;;;;;;3.90;3.77;;;;;;;5.67;83.30;95199.41;5114489;28;20504;-52
2022/11/25 06:17:13;;;;;;;15.53;8.80;;;;;;;5.16;84.71;95210.19;5114331;28;20912;-52
2022/11/25 06:19:41;;;;;;;9.33;7.97;;;;;;;4.78;86.97;95210.81;5114379;28;20438;-52
2022/11/25 06:22:12;;;;;;;10.70;7.53;;;;;;;4.84;91.63;95217.75;5114234;28;20502;-52
2022/11/25 06:24:40;;;;;;;9.83;5.70;;;;;;;4.87;91.03;95209.41;5114217;28;20463;-52
2022/11/25 06:27:08;;;;;;;3.63;3.43;;;;;;;5.48;88.66;95220.94;5114229;28;20428;-52
2022/11/25 06:29:36;;;;;;;2.97;2.67;;;;;;;5.60;85.69;95216.38;5114067;28;20438;-53
2022/11/25 06:32:05;;;;;;;14.63;1.90;;;;;;;5.39;84.58;95217.13;5114150;28;20443;-51
2022/11/25 06:34:35;;;;;;;2.60;2.40;;;;;;;6.15;83.28;95221.63;5114097;28;20420;-52
2022/11/25 06:37:03;;;;;;;4.83;3.53;;;;;;;6.52;81.11;95220.00;5113813;28;20427;-52
2022/11/25 06:39:33;;;;;;;3.43;0.60;;;;;;;6.56;79.27;95218.47;5113074;28;20424;-52
2022/11/25 06:42:01;;;;;;;0.73;0.73;;;;;;;6.74;78.52;95227.88;5113936;28;20431;-51
2022/11/25 06:44:29;;;;;;;2.17;2.00;;;;;;;6.05;80.14;95200.47;5113669;27;20438;-52
2022/11/25 06:46:58;;;;;;;1.53;1.53;;;;;;;5.85;80.86;95232.53;5113681;28;20518;-52
2022/11/25 06:49:28;;;;;;;2.23;2.03;;;;;;;6.04;80.56;95233.09;5113999;28;20429;-52
2022/11/25 06:51:56;;;;;;;0.60;0.60;;;;;;;6.68;79.79;95236.78;5113591;28;20439;-52
2022/11/25 06:54:24;;;;;;;0.50;0.50;;;;;;;6.68;78.58;95216.50;5113626;28;20428;-52
2022/11/25 06:56:55;;;;;;;0.70;0.70;;;;;;;6.99;76.00;95236.84;5113678;28;20519;-51
2022/11/25 06:59:23;;;;;;;1.43;1.33;;;;;;;7.25;76.61;95223.91;5113578;28;20444;-52
2022/11/25 07:01:52;;;;;;;3.97;3.57;;;;;;;7.93;75.74;95229.19;5113428;27;20432;-52
2022/11/25 07:04:20;;;;;;;3.17;2.90;;;;;;;8.56;72.92;95225.59;5113425;28;20450;-52
2022/11/25 07:06:49;;;;;;;1.90;1.80;;;;;;;9.20;70.36;95244.53;5113448;28;20497;-53
2022/11/25 07:09:18;;;;;;;0.70;0.60;;;;;;;9.75;67.25;95237.69;5113598;27;20427;-53
2022/11/25 07:11:46;;;;;;;1.17;1.17;;;;;;;10.62;66.50;95240.72;5113516;28;20424;-51
2022/11/25 07:14:17;;;;;;;1.50;0.60;;;;;;;11.19;65.67;95226.91;5113236;28;20438;-53
2022/11/25 07:16:45;;;;;;;1.13;1.13;;;;;;;11.55;61.32;95242.59;5112975;28;20455;-54
2022/11/25 07:19:16;;;;;;;2.30;2.10;;;;;;;12.04;59.79;95230.78;5113076;27;20440;-54
2022/11/25 07:21:45;;;;;;;0.70;0.70;;;;;;;12.50;58.46;95236.44;5113396;28;20416;-55
2022/11/25 07:24:16;;;;;;;5.13;1.57;;;;;;;12.54;57.46;95192.28;5112742;27;20435;-55
2022/11/25 07:26:45;;;;;;;0.53;0.53;;;;;;;13.29;55.30;95237.63;5112758;27;20973;-55
2022/11/25 07:29:17;;;;;;;2.17;1.03;;;;;;;13.82;54.80;95232.81;5112747;28;20562;-55
2022/11/25 07:32:05;;;;;;;1.63;1.53;;;;;;;14.42;53.53;95234.47;5112624;28;20431;-55
2022/11/25 07:34:37;;;;;;;3.70;1.90;;;;;;;14.79;50.64;95235.38;5112725;28;20434;-55
2022/11/25 07:37:06;;;;;;;4.53;4.27;;;;;;;14.93;52.38;95234.28;5112169;28;20856;-55
2022/11/25 07:39:35;;;;;;;19.47;2.50;;;;;;;15.11;52.27;95230.69;5112617;28;20458;-55
2022/11/25 07:42:05;;;;;;;1.80;1.70;;;;;;;15.41;49.70;95226.56;5111628;28;20448;-56
2022/11/25 07:44:35;;;;;;;2.87;2.67;;;;;;;15.67;49.34;95214.25;5112257;28;20505;-57
2022/11/25 07:47:03;;;;;;;4.07;1.47;;;;;;;16.10;50.87;95227.91;5112404;28;20514;-57
2022/11/25 07:49:32;;;;;;;2.73;1.90;;;;;;;16.27;49.09;95233.34;5112469;28;20915;-57
2022/11/25 07:52:01;;;;;;;7.20;2.37;;;;;;;16.50;46.51;95236.78;5112771;28;20486;-56
2022/11/25 07:54:29;;;;;;;3.33;1.33;;;;;;;16.81;46.50;95239.44;5112316;28;20963;-56
2022/11/25 07:56:58;;;;;;;1.57;1.40;;;;;;;17.13;47.26;95239.06;5112060;28;20435;-56
2022/11/25 07:59:26;;;;;;;3.63;2.83;;;;;;;16.86;44.86;95240.09;5112313;28;20435;-56
2022/11/25 08:01:56;;;;;;;3.20;1.80;;;;;;;16.84;45.55;95241.50;5112697;28;20427;-56
2022/11/25 08:04:24;;;;;;;3.40;1.50;;;;;;;16.42;46.66;95245.53;5112096;28;20424;-56
2022/11/25 08:06:53;;;;;;;3.77;3.57;;;;;;;17.16;45.97;95241.13;5111682;28;20953;-56
2022/11/25 08:09:24;;;;;;;2.70;2.30;;;;;;;17.60;44.90;95232.88;5112538;28;20824;-55
2022/11/25 08:11:52;;;;;;;1.70;1.60;;;;;;;18.20;45.45;95243.53;5112164;28;20522;-55
2022/11/25 08:14:21;;;;;;;2.30;2.20;;;;;;;18.22;44.74;95248.56;5111461;28;20427;-55
2022/11/25 08:16:49;;;;;;;4.57;2.40;;;;;;;17.84;43.76;95231.59;5111975;28;21018;-55
2022/11/25 08:19:19;;;;;;;1.70;1.60;;;;;;;18.19;43.78;95251.91;5111368;28;20459;-54
2022/11/25 08:21:48;;;;;;;1.30;1.20;;;;;;;18.42;43.49;95247.13;5111635;28;20463;-54
2022/11/25 08:24:17;;;;;;;2.37;0.90;;;;;;;19.17;43.36;95241.81;5111849;28;20440;-54
2022/11/25 08:26:47;;;;;;;2.60;2.50;;;;;;;19.37;42.73;95194.59;5111900;28;20491;-55
2022/11/25 08:29:18;;;;;;;2.20;1.53;;;;;;;19.94;41.13;95233.19;5112156;28;20479;-55
2022/11/25 08:31:47;;;;;;;9.30;1.80;;;;;;;20.01;38.96;95163.50;5111340;28;20434;-55
2022/11/25 08:34:20;;;;;;;0.80;0.67;;;;;;;20.76;38.83;95209.88;5112087;28;20515;-55
2022/11/25 08:36:48;;;;;;;3.43;1.77;;;;;;;20.57;40.79;95228.47;5111897;28;20995;-55
2022/11/25 08:39:18;;;;;;;1.20;1.20;;;;;;;20.39;39.99;95217.09;5112038;28;20432;-55
2022/11/25 08:42:07;;;;;;;1.13;1.03;;;;;;;20.96;39.13;95214.38;5111763;28;20443;-55
2022/11/25 08:44:36;;;;;;;0.80;0.80;;;;;;;20.96;38.20;95195.53;5111701;28;20775;-53
2022/11/25 08:47:08;;;;;;;1.17;1.17;;;;;;;21.03;37.38;95124.88;5111520;28;20463;-53
2022/11/25 08:49:38;;;;;;;1.77;1.13;;;;;;;21.30;38.04;95219.31;5112047;28;20483;-55
2022/11/25 08:52:09;;;;;;;2.13;2.03;;;;;;;21.34;36.66;95222.13;5111936;28;20427;-54
2022/11/25 08:54:37;;;;;;;1.33;0.77;;;;;;;20.89;35.33;95066.00;5114428;28;20452;-54
2022/11/25 08:57:06;;;;;;;3.80;3.43;;;;;;;22.50;34.42;95213.88;5116008;28;20456;-54
2022/11/25 08:59:34;;;;;;;1.00;1.00;;;;;;;21.70;31.92;95222.06;5115771;28;20943;-54
2022/11/25 09:02:04;;;;;;;0.50;0.43;;;;;;;22.33;32.67;95220.38;5116015;28;20411;-54
2022/11/25 09:04:32;;;;;;;0.50;0.47;;;;;;;22.79;31.95;95226.22;5116224;28;20438;-53
2022/11/25 09:07:04;;;;;;;0.40;0.30;;;;;;;22.15;30.57;95051.75;5116295;28;20486;-53
2022/11/25 09:09:33;;;;;;;0.93;0.60;;;;;;;22.79;31.38;95227.00;5115783;28;20433;-54
2022/11/25 09:12:02;;;;;;;0.70;0.63;;;;;;;22.88;33.17;95221.41;5116096;28;20919;-54
2022/11/25 09:14:31;;;;;;;0.40;0.40;;;;;;;22.72;32.61;95211.41;5115809;27;21035;-54
2022/11/25 09:17:00;;;;;;;0.37;0.30;;;;;;;22.92;31.46;95206.09;5115535;27;20523;-54
2022/11/25 09:19:29;;;;;;;0.40;0.30;;;;;;;22.54;31.11;95212.81;5115465;28;21118;-54
2022/11/25 09:21:57;;;;;;;0.60;0.50;;;;;;;22.69;31.43;95203.97;5115246;28;20436;-54
2022/11/25 09:24:26;;;;;;;0.50;0.37;;;;;;;22.99;30.20;95201.63;5115798;28;20442;-55
2022/11/25 09:26:55;;;;;;;0.40;0.30;;;;;;;22.64;29.02;95206.94;5115324;27;20478;-55
2022/11/25 09:29:24;;;;;;;0.40;0.30;;;;;;;22.69;30.29;95205.91;5115615;28;20469;-55
2022/11/25 09:31:52;;;;;;;0.30;0.27;;;;;;;22.98;30.73;95204.66;5115308;28;20844;-55
2022/11/25 09:34:22;;;;;;;0.40;0.30;;;;;;;23.71;33.68;95193.97;5115110;28;20508;-55
2022/11/25 09:36:50;;;;;;;0.40;0.40;;;;;;;21.55;28.93;95206.59;5114582;28;20430;-55
2022/11/25 09:39:19;;;;;;;0.30;0.30;;;;;;;21.79;29.88;95208.44;5115003;28;20456;-55
2022/11/25 09:47:53;;;;;;;0.40;0.30;;;;;;;23.04;28.46;95197.88;5115093;28;20468;-54
2022/11/25 09:50:35;;;;;;;0.40;0.20;;;;;;;23.42;28.14;95206.13;5114747;28;20428;-55
2022/11/25 09:53:14;;;;;;;0.40;0.30;;;;;;;23.31;29.59;95207.78;5115115;28;20455;-55
2022/11/25 09:55:47;;;;;;;0.33;0.20;;;;;;;23.08;29.43;95201.44;5114822;28;20432;-55
2022/11/25 09:58:26;;;;;;;0.40;0.30;;;;;;;21.98;29.01;95208.63;5114636;28;20543;-55
2022/11/25 10:00:54;;;;;;;0.30;0.20;;;;;;;22.20;28.83;95199.97;5114424;27;20474;-55
2022/11/25 10:03:34;;;;;;;0.40;0.30;;;;;;;21.27;28.68;95114.09;5114525;28;20904;-55
2022/11/25 10:06:05;;;;;;;0.33;0.20;;;;;;;22.91;28.27;95193.69;5114146;28;20465;-54
2022/11/25 10:08:38;;;;;;;0.37;0.30;;;;;;;21.51;28.72;95203.78;5114868;28;20428;-55
2022/11/25 10:11:18;;;;;;;0.30;0.30;;;;;;;21.40;28.95;95202.69;5114446;28;20442;-55
2022/11/25 10:13:54;;;;;;;0.47;0.47;;;;;;;22.07;28.02;95201.16;5114759;28;20428;-54
2022/11/25 10:16:34;;;;;;;0.40;0.30;;;;;;;21.38;28.88;95191.47;5114420;28;20433;-54
2022/11/25 10:19:12;;;;;;;0.40;0.30;;;;;;;22.30;30.70;95194.06;5114483;28;20474;-54
2022/11/25 10:21:41;;;;;;;0.40;0.30;;;;;;;21.49;28.66;95179.09;5113295;28;20534;-54
2022/11/25 10:24:14;;;;;;;0.70;0.27;;;;;;;22.42;26.74;95190.50;5114183;28;20822;-54
2022/11/25 10:26:49;;;;;;;0.40;0.33;;;;;;;20.95;27.39;95175.09;5114039;28;20471;-54
2022/11/25 10:29:29;;;;;;;0.40;0.30;;;;;;;19.97;28.80;95177.94;5114333;28;20475;-55
2022/11/25 10:32:11;;;;;;;0.50;0.50;;;;;;;20.35;30.02;95188.50;5114053;28;20443;-55
2022/11/25 10:34:46;;;;;;;0.83;0.40;;;;;;;20.79;28.49;95176.91;5114537;28;20484;-54
2022/11/25 10:37:27;;;;;;;0.40;0.30;;;;;;;21.71;27.99;95176.97;5114121;28;20990;-54
2022/11/25 10:39:55;;;;;;;0.50;0.40;;;;;;;22.26;27.59;95174.31;5114363;28;20463;-54
2022/11/25 10:42:26;;;;;;;0.30;0.30;;;;;;;22.84;27.15;95171.91;5114186;28;20424;-54
2022/11/25 10:44:56;;;;;;;0.50;0.37;;;;;;;22.63;26.50;95162.16;5114154;28;20426;-55
2022/11/25 10:47:34;;;;;;;0.30;0.20;;;;;;;22.96;26.90;95166.41;5114109;28;20556;-55
2022/11/25 10:50:17;;;;;;;0.30;0.20;;;;;;;23.86;24.94;95161.44;5113634;28;20431;-55
2022/11/25 10:52:55;;;;;;;0.50;0.30;;;;;;;21.65;25.88;95089.34;5113798;28;20460;-55
2022/11/25 10:55:25;;;;;;;0.30;0.20;;;;;;;22.86;25.53;95162.31;5113747;28;20439;-55
2022/11/25 10:57:54;;;;;;;0.33;0.30;;;;;;;22.97;26.66;95171.44;5113751;28;20432;-55
2022/11/25 11:00:30;;;;;;;0.30;0.20;;;;;;;21.96;26.02;95163.09;5113528;28;20516;-54
2022/11/25 11:03:01;;;;;;;0.40;0.30;;;;;;;22.41;27.54;95165.44;5113446;28;20470;-54
2022/11/25 11:05:31;;;;;;;0.30;0.20;;;;;;;22.23;28.40;95158.78;5113327;28;20419;-54
2022/11/25 11:08:25;;;;;;;0.30;0.20;;;;;;;22.63;27.46;95164.88;5113355;28;20475;-54
2022/11/25 11:11:16;;;;;;;0.40;0.20;;;;;;;21.54;27.05;95035.13;5099134;28;20437;-55
2022/11/25 11:13:46;;;;;;;0.40;0.20;;;;;;;22.92;26.04;95162.84;5113499;28;20538;-55
2022/11/25 11:16:36;;;;;;;0.30;0.20;;;;;;;22.03;26.37;95167.91;5112472;28;20499;-55
2022/11/25 11:19:05;;;;;;;0.30;0.20;;;;;;;21.93;27.20;95163.78;5113400;28;20481;-55
2022/11/25 11:21:36;;;;;;;0.30;0.20;;;;;;;21.77;27.33;95133.25;5112465;28;20424;-54
2022/11/25 11:24:25;;;;;;;0.30;0.20;;;;;;;21.39;27.75;95158.00;5113136;28;20439;-54
2022/11/25 11:27:02;;;;;;;0.30;0.20;;;;;;;21.63;28.17;95151.72;5112858;28;20447;-55
2022/11/25 11:29:31;;;;;;;0.40;0.30;;;;;;;21.85;26.98;95163.91;5112857;28;20507;-54
2022/11/25 11:32:02;;;;;;;0.30;0.20;;;;;;;23.07;26.60;95160.09;5112729;28;20506;-54
2022/11/25 11:34:52;;;;;;;0.30;0.20;;;;;;;22.85;29.37;95162.66;5112897;28;20428;-56
2022/11/25 11:37:36;;;;;;;0.30;0.30;;;;;;;22.80;28.28;95162.91;5112963;28;20525;-56
2022/11/25 11:40:32;;;;;;;0.30;0.23;;;;;;;22.87;27.64;95163.09;5112375;28;20462;-56
2022/11/25 11:43:21;;;;;;;0.40;0.40;;;;;;;22.23;28.38;95166.09;5112182;28;20519;-55
2022/11/25 11:46:04;;;;;;;0.30;0.20;;;;;;;22.12;28.79;95172.00;5110751;28;21010;-55
2022/11/25 11:48:39;;;;;;;0.30;0.20;;;;;;;21.55;27.92;95133.00;5112222;28;20579;-55
2022/11/25 11:51:20;;;;;;;0.33;0.27;;;;;;;21.98;27.12;95187.03;5112277;28;20499;-55
2022/11/25 11:54:00;;;;;;;0.37;0.30;;;;;;;20.84;28.36;95173.97;5112352;28;20422;-55
2022/11/25 11:56:37;;;;;;;0.30;0.20;;;;;;;22.29;28.79;95153.94;5112011;28;20451;-55
2022/11/25 11:59:19;;;;;;;0.43;0.40;;;;;;;22.26;26.79;95170.81;5110695;28;20431;-55
2022/11/25 12:02:02;;;;;;;4.10;0.30;;;;;;;22.26;28.15;95190.50;5109974;28;20485;-55
2022/11/25 12:04:40;;;;;;;0.30;0.20;;;;;;;21.86;27.75;95182.47;5111041;28;20497;-55
2022/11/25 12:07:20;;;;;;;0.30;0.20;;;;;;;21.81;26.13;95181.88;5112146;28;20419;-53
2022/11/25 12:09:53;;;;;;;0.30;0.20;;;;;;;21.70;26.90;95159.25;5112234;28;20503;-56